• Join FlightAware (Why Join?)
  • Login
  • US Flag 
10:32AM EDT


 

Airport Tracker/Info


-or-


 

Live Flight TrackerFlight Track Log ✈ A6-ENG ✈ 05-Jul-2013 ✈ LEMD / MAD - OMDB / DXB

Flight Track Log - Related Links

Times and Time Zones

All times are in EDT time to prevent confusion due to time zone crossing. See the A6-ENG flight status page for this flight to view local times or setup timezone preferences in your user account.

Time Position Orientation Groundspeed Altitude Reporting Facility
EDT Latitude Longitude Course Direction KTS MPH feet Rate Location/Type
09:41AM 40.5610 -3.5540 21° North 203 234 3,300  Level FlightAware
09:41AM 40.5900 -3.5400 20° North 207 238 4,500 1,980 Climbing FlightAware
09:42AM 40.6090 -3.5220 36° Northeast 212 244 5,200 1,140 Climbing FlightAware
09:42AM 40.6330 -3.4950 40° Northeast 254 292 5,500 1,440 Climbing FlightAware
09:42AM 40.6510 -3.4740 42° Northeast 258 297 6,400 2,580 Climbing FlightAware
09:43AM 40.6750 -3.4470 40° Northeast 254 292 7,600 2,640 Climbing FlightAware
09:43AM 40.6950 -3.4250 40° Northeast 254 292 8,600 2,520 Climbing FlightAware
09:44AM 40.7200 -3.3970 40° Northeast 258 297 9,700 2,280 Climbing FlightAware
09:44AM 40.7370 -3.3630 57° Northeast 267 307 10,700 2,280 Climbing FlightAware
09:45AM 40.7300 -3.3210 102° East 274 315 11,700 2,340 Climbing FlightAware
09:45AM 40.6950 -3.2720 133° Southeast 278 320 13,300 1,920 Climbing FlightAware
09:46AM 40.6740 -3.2640 164° South 295 339 13,600 1,080 Climbing FlightAware
09:46AM 40.6200 -3.2630 179° South 332 382 14,300 1,200 Climbing FlightAware
09:47AM 40.5570 -3.2640 181° South 371 427 15,100 1,080 Climbing FlightAware
09:48AM 40.4770 -3.2630 179° South 412 474 15,800 1,560 Climbing FlightAware
09:48AM 40.3910 -3.2620 179° South 424 488 17,400 2,040 Climbing FlightAware
09:49AM 40.3130 -3.2610 179° South 434 499 18,700 1,920 Climbing FlightAware
09:49AM 40.2810 -3.2550 172° South 438 504 19,200 1,740 Climbing FlightAware
09:50AM 40.2330 -3.2140 147° Southeast 443 510 20,000 1,680 Climbing FlightAware
09:50AM 40.2070 -3.1480 117° Southeast 449 517 20,800 1,680 Climbing FlightAware
09:51AM 40.1850 -3.0470 106° East 458 527 21,900 1,740 Climbing FlightAware
09:52AM 40.1600 -2.9310 106° East 467 537 23,200 1,740 Climbing FlightAware
09:52AM 40.1340 -2.8150 106° East 475 547 24,400 1,800 Climbing FlightAware
09:53AM 40.1110 -2.7090 106° East 481 554 25,600 1,620 Climbing FlightAware
09:54AM 40.0800 -2.5740 107° East 491 565 26,800 1,500 Climbing FlightAware
09:54AM 40.0540 -2.4710 108° East 499 574 27,700 1,500 Climbing FlightAware
09:55AM 40.0160 -2.3560 113° Southeast 507 583 28,800 1,500 Climbing FlightAware
09:56AM 39.9750 -2.2480 116° Southeast 511 588 29,800 1,980 Climbing FlightAware
09:56AM 39.9410 -2.1580 116° Southeast 502 578 31,200 1,740 Climbing FlightAware
09:57AM 39.8980 -2.0460 117° Southeast 498 573 32,000 540 Climbing FlightAware
09:58AM 39.8540 -1.9300 116° Southeast 497 572 32,000  Level FlightAware
09:58AM 39.8150 -1.8310 117° Southeast 499 574 32,000  Level FlightAware
09:59AM 39.7780 -1.7350 117° Southeast 499 574 32,000  Level FlightAware
10:00AM 39.7330 -1.6190 117° Southeast 499 574 32,000  Level FlightAware
10:00AM 39.6850 -1.4940 116° Southeast 500 575 32,000  Level FlightAware
10:01AM 39.6460 -1.3950 117° Southeast 500 575 32,000  Level FlightAware
10:02AM 39.6000 -1.2790 117° Southeast 501 577 32,000  Level FlightAware
10:02AM 39.5650 -1.1900 117° Southeast 501 577 32,000  Level FlightAware
10:03AM 39.5050 -1.0470 119° Southeast 503 579 32,000  Level FlightAware
10:04AM 39.4480 -0.9180 120° Southeast 503 579 32,000  Level FlightAware
10:05AM 39.3950 -0.8000 120° Southeast 503 579 32,000  Level FlightAware
10:05AM 39.3570 -0.7140 120° Southeast 502 578 32,000  Level FlightAware
10:06AM 39.3040 -0.5920 119° Southeast 502 578 32,000  Level FlightAware
10:07AM 39.2630 -0.4530 111° Southeast 501 577 32,000  Level FlightAware
10:08AM 39.2330 -0.3090 105° East 500 575 32,000  Level FlightAware
10:09AM 39.1990 -0.1440 105° East 501 577 32,000  Level FlightAware
10:09AM 39.1780 -0.0470 106° East 500 575 32,000  Level FlightAware
10:10AM 39.1480 0.0940 105° East 501 577 32,000  Level FlightAware
10:11AM 39.1170 0.2400 105° East 501 577 32,000  Level FlightAware
10:12AM 39.0950 0.3410 106° East 502 578 32,000  Level FlightAware
10:12AM 39.0800 0.4120 105° East 501 577 32,000  Level FlightAware
10:13AM 39.0570 0.5180 106° East 502 578 32,000  Level FlightAware
10:13AM 39.0280 0.6480 106° East 502 578 32,000  Level FlightAware
10:14AM 38.9960 0.7940 106° East 502 578 32,000  Level FlightAware
10:15AM 38.9690 0.9170 106° East 501 577 32,000  Level FlightAware
10:16AM 38.9420 1.0400 106° East 501 577 32,000  Level FlightAware
10:16AM 38.9150 1.1600 106° East 500 575 32,000  Level FlightAware
10:17AM 38.8890 1.2750 106° East 499 574 32,000  Level FlightAware
10:18AM 38.8600 1.4030 106° East 502 578 32,000  Level FlightAware
10:18AM 38.8270 1.5310 108° East 503 579 32,000  Level FlightAware
10:19AM 38.7980 1.6420 109° East 501 577 32,000  Level FlightAware
10:20AM 38.7690 1.7550 108° East 499 574 32,000  Level FlightAware
10:20AM 38.7360 1.8820 108° East 499 574 32,000  Level FlightAware
10:21AM 38.7070 1.9950 108° East 499 574 32,000  Level FlightAware
10:22AM 38.6770 2.1090 109° East 500 575 32,000 180 Level FlightAware
10:23AM 38.6380 2.2310 112° Southeast 499 574 32,300 660 Climbing FlightAware
10:23AM 38.5940 2.3510 115° Southeast 498 573 33,000 480 Climbing FlightAware
10:24AM 38.5530 2.4590 116° Southeast 500 575 33,000  Level FlightAware
10:25AM 38.5150 2.5610 115° Southeast 501 577 33,000  Level FlightAware
10:25AM 38.4680 2.6860 116° Southeast 499 574 33,000  Level FlightAware
10:26AM 38.4350 2.7750 115° Southeast 499 574 33,000  Level FlightAware
10:27AM 38.3930 2.8850 116° Southeast 500 575 33,000  Level FlightAware
10:27AM 38.3480 3.0050 116° Southeast 500 575 33,000  Level FlightAware
10:28AM 38.3140 3.1020 114° Southeast 504 580 33,000  Level FlightAware
10:29AM 38.2830 3.2020 112° Southeast 504 580 33,000  Level FlightAware
10:29AM 38.2460 3.3270 111° Southeast 502 578 33,000  Level FlightAware
10:30AM 38.2160 3.4320 110° East 502 578 33,000  Level FlightAware
10:31AM 38.1850 3.5400 110° East 501 577 33,000  Level FlightAware
10:31AM 38.1450 3.6780 110° East 498 573 33,000  Level FlightAware
10:32AM 38.1120 3.7900 110° East 496 571 33,000  Level FlightAware
10:33AM 38.0720 3.9250 111° Southeast 498 573 33,000  Level FlightAware
10:34AM 38.0390 4.0350 111° Southeast 498 573 33,000  Level FlightAware
10:34AM 38.0040 4.1530 111° Southeast 498 573 33,000  Level FlightAware
10:35AM 37.9750 4.2490 111° Southeast 498 573 33,000  Level FlightAware
10:36AM 37.9440 4.3530 111° Southeast 498 573 33,000  Level FlightAware
10:36AM 37.9060 4.4790 111° Southeast 497 572 33,000  Level FlightAware
10:37AM 37.8770 4.5740 111° Southeast 497 572 33,000  Level FlightAware
10:38AM 37.8390 4.6970 111° Southeast 498 573 33,000  Level FlightAware
10:38AM 37.8140 4.7800 111° Southeast 497 572 33,000  Level FlightAware
10:39AM 37.7680 4.9290 111° Southeast 496 571 33,000  Level FlightAware
10:40AM 37.7390 5.0250 111° Southeast 496 571 33,000  Level FlightAware
10:40AM 37.7130 5.1100 111° Southeast 496 571 33,000  Level FlightAware
10:41AM 37.6890 5.1880 111° Southeast 496 571 33,000  Level FlightAware
10:42AM 37.6550 5.3010 111° Southeast 496 571 33,000  Level FlightAware
10:42AM 37.6290 5.3860 111° Southeast 496 571 33,000  Level FlightAware
10:43AM 37.6050 5.4640 111° Southeast 496 571 33,000  Level FlightAware
10:44AM 37.5710 5.5770 111° Southeast 496 571 33,000  Level FlightAware
10:44AM 37.5460 5.6600 111° Southeast 496 571 33,000  Level FlightAware
10:45AM 37.5120 5.7720 111° Southeast 496 571 33,000  Level FlightAware
10:46AM 37.4860 5.8570 111° Southeast 496 571 33,000  Level FlightAware
10:46AM 37.4610 5.9400 111° Southeast 496 571 33,000  Level FlightAware
10:47AM 37.4190 6.0770 111° Southeast 496 571 33,000  Level FlightAware
10:48AM 37.3940 6.1600 111° Southeast 496 571 33,000  Level FlightAware
10:49AM 37.3610 6.2670 111° Southeast 496 571 33,000  Level FlightAware
10:51AM 37.3548 6.5180 92° East  Level Estimated
10:51AM 37.2050 6.7940 92° East 497 572 33,000  Level FlightAware
10:51AM 37.1840 6.9070 103° East 497 572 33,000  Level FlightAware
10:52AM 37.1590 7.0350 104° East 497 572 33,000  Level FlightAware
10:53AM 37.1370 7.1490 104° East 496 571 33,000  Level FlightAware
10:53AM 37.1180 7.2470 104° East 497 572 33,000  Level FlightAware
10:54AM 37.0920 7.3840 103° East 497 572 33,000  Level FlightAware
10:55AM 37.0670 7.5160 103° East 498 573 33,000  Level FlightAware
10:56AM 37.0410 7.6400 105° East 497 572 33,000  Level FlightAware
10:56AM 37.0170 7.7600 104° East 500 575 33,000  Level FlightAware
10:57AM 36.9850 7.9270 103° East 502 578 33,000  Level FlightAware
10:58AM 36.9690 8.0140 103° East 502 578 33,000  Level FlightAware
11:01AM 36.9557 8.3972 92° East  Level Estimated
11:02AM 36.9501 8.5484 93° East  Level Estimated
11:03AM 36.9443 8.6995 93° East  Level Estimated
11:03AM 36.8360 8.8180 93° East 500 575 33,000  Level FlightAware
11:03AM 36.8280 8.9340 95° East 500 575 33,000  Level FlightAware
11:04AM 36.8210 9.0290 95° East 501 577 33,000  Level FlightAware
11:05AM 36.8120 9.1640 95° East 501 577 33,000 180 Level FlightAware
11:05AM 36.8030 9.2910 95° East 495 570 33,300 600 Climbing FlightAware
11:06AM 36.7940 9.4040 96° East 493 567 33,900 900 Climbing FlightAware
11:07AM 36.7860 9.5150 95° East 501 577 34,500 540 Climbing FlightAware
11:07AM 36.7780 9.6330 95° East 501 577 34,700 300 Climbing FlightAware
11:08AM 36.7670 9.7640 96° East 504 580 35,000 180 Climbing FlightAware
11:09AM 36.7570 9.8930 95° East 506 582 35,000  Level FlightAware
11:09AM 36.7480 10.0100 95° East 507 583 35,000  Level FlightAware
11:10AM 36.7390 10.1260 95° East 509 586 35,000  Level FlightAware
11:11AM 36.7260 10.2790 96° East 510 587 35,000  Level FlightAware
11:12AM 36.7140 10.4290 96° East 513 590 35,000  Level FlightAware
11:13AM 36.7030 10.5540 96° East 514 592 35,000  Level FlightAware
11:13AM 36.6920 10.6830 96° East 514 592 35,000  Level FlightAware
11:14AM 36.6830 10.7900 96° East 515 593 35,000  Level FlightAware
11:15AM 36.6720 10.9190 96° East 515 593 35,000  Level FlightAware
11:15AM 36.6630 11.0280 96° East 516 594 35,000  Level FlightAware
11:16AM 36.6520 11.1420 97° East 517 595 35,000  Level FlightAware
11:17AM 36.6400 11.2780 96° East 519 597 35,000  Level FlightAware
11:17AM 36.6320 11.3710 96° East 517 595 35,000  Level FlightAware
11:18AM 36.6180 11.5020 98° East 519 597 35,000  Level FlightAware
11:19AM 36.5990 11.6200 101° East 519 597 35,000  Level FlightAware
11:19AM 36.5820 11.7430 100° East 519 597 35,000  Level FlightAware
11:20AM 36.5650 11.8790 99° East 519 597 35,000  Level FlightAware
11:21AM 36.5500 11.9960 99° East 519 597 35,000  Level FlightAware
11:21AM 36.5350 12.1180 99° East 520 598 35,000  Level FlightAware
11:22AM 36.5200 12.2370 99° East 522 601 35,000  Level FlightAware
11:23AM 36.5050 12.3540 99° East 523 602 35,000  Level FlightAware
11:23AM 36.4910 12.4620 99° East 524 603 35,000  Level FlightAware
11:24AM 36.4800 12.5530 99° East 524 603 35,000  Level FlightAware
11:25AM 36.4630 12.6830 99° East 523 602 35,000  Level FlightAware
11:25AM 36.4460 12.8070 100° East 523 602 35,000  Level FlightAware
11:26AM 36.4290 12.9380 99° East 525 604 35,000  Level FlightAware
11:27AM 36.4130 13.0570 99° East 528 608 35,000  Level FlightAware
11:27AM 36.3960 13.1770 100° East 530 610 35,000  Level FlightAware
11:28AM 36.3810 13.2930 99° East 532 612 35,000  Level FlightAware
11:29AM 36.3650 13.4090 100° East 533 613 35,000  Level FlightAware
11:29AM 36.3460 13.5430 100° East 534 615 35,000  Level FlightAware
11:30AM 36.3340 13.6290 100° East 536 617 35,000  Level FlightAware
11:32AM 36.2850 13.9730 100° East 536 617 35,000  Level FlightAware
11:32AM 36.2680 14.0940 100° East 533 613 35,000  Level FlightAware
11:33AM 36.2470 14.2430 100° East 531 611 35,000  Level FlightAware
11:34AM 36.2290 14.3640 100° East 530 610 35,000  Level FlightAware
11:35AM 36.2120 14.4800 100° East 529 609 35,000  Level FlightAware
11:35AM 36.1920 14.6120 101° East 528 608 35,000  Level FlightAware
11:36AM 36.1730 14.7430 100° East 527 606 35,000  Level FlightAware
11:37AM 36.1560 14.8570 100° East 527 606 35,000  Level FlightAware
11:37AM 36.1370 14.9760 101° East 528 608 35,000  Level FlightAware
11:38AM 36.1170 15.1070 101° East 530 610 35,000  Level FlightAware
11:39AM 36.0970 15.2380 101° East 531 611 35,000  Level FlightAware
11:39AM 36.0810 15.3450 100° East 532 612 35,000  Level FlightAware
11:40AM 36.0590 15.4830 101° East 534 615 35,000  Level FlightAware
11:41AM 36.0390 15.6140 101° East 535 616 35,000  Level FlightAware
11:41AM 36.0250 15.6980 102° East 534 615 35,000  Level FlightAware
11:42AM 36.0060 15.8200 101° East 537 618 35,000  Level FlightAware
11:43AM 35.9850 15.9500 101° East 538 619 35,000  Level FlightAware
11:43AM 35.9660 16.0660 101° East 539 620 35,000  Level FlightAware
11:44AM 35.9450 16.1970 101° East 540 621 35,000  Level FlightAware
11:45AM 35.9200 16.3480 102° East 541 623 35,000  Level FlightAware
11:46AM 35.8910 16.5240 101° East 542 624 35,000  Level FlightAware
11:47AM 35.8670 16.6700 101° East 544 626 35,000  Level FlightAware
11:47AM 35.8480 16.7870 101° East 544 626 35,000  Level FlightAware
11:48AM 35.8240 16.9290 102° East 544 626 35,000  Level FlightAware
11:49AM 35.8020 17.0590 102° East 546 628 35,000  Level FlightAware
11:49AM 35.7860 17.1460 103° East 546 628 35,000  Level FlightAware
11:50AM 35.7600 17.2990 102° East 548 631 35,000  Level FlightAware
11:51AM 35.7380 17.4270 102° East 548 631 35,000  Level FlightAware
11:51AM 35.7220 17.5200 102° East 548 631 35,000  Level FlightAware
11:52AM 35.7000 17.6430 102° East 547 629 35,000  Level FlightAware
11:53AM 35.6770 17.7710 102° East 546 628 35,000  Level FlightAware
11:53AM 35.6550 17.8980 102° East 547 629 35,000  Level FlightAware
11:54AM 35.6360 18.0030 103° East 548 631 35,000  Level FlightAware
11:55AM 35.6140 18.1270 102° East 550 633 35,000  Level FlightAware
11:56AM 35.5850 18.2890 102° East 550 633 35,000  Level FlightAware
11:57AM 35.5570 18.4440 102° East 549 632 35,000  Level FlightAware
11:57AM 35.5240 18.6210 103° East 548 631 35,000  Level FlightAware
11:58AM 35.5040 18.7290 103° East 549 632 35,000  Level FlightAware
11:59AM 35.4850 18.8330 103° East 549 632 35,000  Level FlightAware
12:00PM 35.4800 18.8640 101° East 549 632 35,000  Level FlightAware
12:00PM 35.4630 18.9600 102° East 549 632 35,000  Level FlightAware
12:01PM 35.4470 19.0560 102° East 549 632 35,000  Level FlightAware
12:02PM 35.4260 19.1750 102° East 549 632 35,000  Level FlightAware
12:02PM 35.4090 19.2740 102° East 549 632 35,000  Level FlightAware
12:03PM 35.3870 19.3980 102° East 549 632 35,000  Level FlightAware
12:04PM 35.3710 19.4940 102° East 549 632 35,000  Level FlightAware
12:04PM 35.3490 19.6180 102° East 549 632 35,000  Level FlightAware
12:05PM 35.3330 19.7110 102° East 549 632 35,000  Level FlightAware
12:06PM 35.3120 19.8330 102° East 549 632 35,000  Level FlightAware
12:06PM 35.2960 19.9260 102° East 549 632 35,000  Level FlightAware
12:07PM 35.2740 20.0500 102° East 549 632 35,000  Level FlightAware
12:08PM 35.2580 20.1410 102° East 549 632 35,000  Level FlightAware
12:09PM 35.2370 20.2650 102° East 549 632 35,000  Level FlightAware
12:11PM 35.2027 20.5407 99° East  Level Estimated
12:12PM 35.1842 20.6870 99° East  Level Estimated
12:13PM 35.1656 20.8332 99° East  Level Estimated
12:14PM 35.1468 20.9793 99° East  Level Estimated
12:15PM 35.1278 21.1254 99° East  Level Estimated
12:16PM 35.1086 21.2714 99° East  Level Estimated
12:17PM 35.0893 21.4174 99° East  Level Estimated
12:18PM 35.0698 21.5632 99° East  Level Estimated
12:19PM 35.0501 21.7091 99° East  Level Estimated
12:20PM 35.0302 21.8548 99° East  Level Estimated
12:21PM 35.0102 22.0005 99° East  Level Estimated
12:22PM 34.9900 22.1460 100° East  Level Estimated
12:23PM 34.9696 22.2916 100° East  Level Estimated
12:24PM 34.9490 22.4370 100° East  Level Estimated
12:25PM 34.9283 22.5824 100° East  Level Estimated
12:26PM 34.9074 22.7277 100° East  Level Estimated
12:27PM 34.8863 22.8729 100° East  Level Estimated
12:28PM 34.8650 23.0181 100° East  Level Estimated
12:29PM 34.8436 23.1631 100° East  Level Estimated
12:30PM 34.8220 23.3081 100° East  Level Estimated
12:31PM 34.8003 23.4531 100° East  Level Estimated
12:32PM 34.7783 23.5979 100° East  Level Estimated
12:33PM 34.7562 23.7427 100° East  Level Estimated
12:34PM 34.7339 23.8874 101° East  Level Estimated
12:35PM 34.7115 24.0320 101° East  Level Estimated
12:36PM 34.6889 24.1765 101° East  Level Estimated
12:37PM 34.6661 24.3210 101° East  Level Estimated
12:38PM 34.6431 24.4653 101° East  Level Estimated
12:39PM 34.6200 24.6096 101° East  Level Estimated
12:40PM 34.5967 24.7539 101° East  Level Estimated
12:41PM 34.5732 24.8980 101° East  Level Estimated
12:42PM 34.5496 25.0420 101° East  Level Estimated
12:43PM 34.5257 25.1860 101° East  Level Estimated
12:44PM 34.5018 25.3299 101° East  Level Estimated
12:45PM 34.4776 25.4737 101° East  Level Estimated
12:46PM 34.4533 25.6174 102° East  Level Estimated
12:47PM 34.4288 25.7611 102° East  Level Estimated
12:48PM 34.4042 25.9046 102° East  Level Estimated
12:49PM 34.3793 26.0481 102° East  Level Estimated
12:50PM 34.3544 26.1915 102° East  Level Estimated
12:51PM 34.3292 26.3348 102° East  Level Estimated
12:52PM 34.3039 26.4780 102° East  Level Estimated
12:53PM 34.2784 26.6211 102° East  Level Estimated
12:54PM 34.2527 26.7641 102° East  Level Estimated
12:55PM 34.2269 26.9071 102° East  Level Estimated
12:56PM 34.2009 27.0499 102° East  Level Estimated
12:57PM 34.1748 27.1927 102° East  Level Estimated
12:58PM 34.1484 27.3354 103° East  Level Estimated
12:59PM 34.1220 27.4780 103° East  Level Estimated
01:00PM 34.0953 27.6205 103° East  Level Estimated
01:01PM 34.0685 27.7629 103° East  Level Estimated
01:02PM 34.0415 27.9052 103° East  Level Estimated
01:03PM 34.0144 28.0475 103° East  Level Estimated
01:04PM 33.9871 28.1896 103° East  Level Estimated
01:05PM 33.9596 28.3316 103° East  Level Estimated
01:06PM 33.9320 28.4736 103° East  Level Estimated
01:07PM 33.9042 28.6155 103° East  Level Estimated
01:08PM 33.8762 28.7572 103° East  Level Estimated
01:09PM 33.8481 28.8989 103° East  Level Estimated
01:10PM 33.8198 29.0405 103° East  Level Estimated
01:11PM 33.7914 29.1820 104° East  Level Estimated
01:12PM 33.7628 29.3234 104° East  Level Estimated
01:13PM 33.7340 29.4647 104° East  Level Estimated
01:14PM 33.7051 29.6059 104° East  Level Estimated
01:15PM 33.6760 29.7470 104° East  Level Estimated
01:16PM 33.6468 29.8881 104° East  Level Estimated
01:17PM 33.6174 30.0290 104° East  Level Estimated
01:18PM 33.5878 30.1698 104° East  Level Estimated
01:19PM 33.5580 30.3105 104° East  Level Estimated
01:20PM 33.5282 30.4512 104° East  Level Estimated
01:21PM 33.4981 30.5917 104° East  Level Estimated
01:22PM 33.4679 30.7321 104° East  Level Estimated
01:23PM 33.4376 30.8725 104° East  Level Estimated
01:24PM 33.4071 31.0127 105° East  Level Estimated
01:25PM 33.3764 31.1529 105° East  Level Estimated
01:26PM 33.3455 31.2929 105° East  Level Estimated
01:27PM 33.3145 31.4328 105° East  Level Estimated
01:28PM 33.2834 31.5727 105° East  Level Estimated
01:29PM 33.2521 31.7124 105° East  Level Estimated
01:30PM 33.2206 31.8521 105° East  Level Estimated
01:31PM 33.1890 31.9916 105° East  Level Estimated
01:32PM 33.1572 32.1310 105° East  Level Estimated
01:33PM 33.1253 32.2704 105° East  Level Estimated
01:34PM 33.0932 32.4096 105° East  Level Estimated
01:35PM 33.0610 32.5488 105° East  Level Estimated
01:36PM 33.0286 32.6878 105° East  Level Estimated
01:37PM 32.9961 32.8267 106° East  Level Estimated
01:38PM 32.9634 32.9656 106° East  Level Estimated
01:39PM 32.9305 33.1043 106° East  Level Estimated
01:40PM 32.8975 33.2429 106° East  Level Estimated
01:41PM 32.8644 33.3814 106° East  Level Estimated
01:42PM 32.8311 33.5199 106° East  Level Estimated
01:43PM 32.7976 33.6582 106° East  Level Estimated
01:44PM 32.7640 33.7964 106° East  Level Estimated
01:45PM 32.7302 33.9345 106° East  Level Estimated
01:46PM 32.6963 34.0725 106° East  Level Estimated
01:47PM 32.6622 34.2104 106° East  Level Estimated
01:48PM 32.6280 34.3481 106° East  Level Estimated
01:49PM 32.5936 34.4858 106° East  Level Estimated
01:50PM 32.5591 34.6234 107° East  Level Estimated
01:51PM 32.5244 34.7609 107° East  Level Estimated
01:52PM 32.4896 34.8982 107° East  Level Estimated
01:53PM 32.4547 35.0355 107° East  Level Estimated
01:54PM 32.4195 35.1726 107° East  Level Estimated
01:55PM 32.3843 35.3097 107° East  Level Estimated
01:56PM 32.3489 35.4466 107° East  Level Estimated
01:57PM 32.3133 35.5835 107° East  Level Estimated
01:57PM 29.6500 36.0510 107° East 502 578 35,000  Level FlightAware
01:58PM 32.2776 35.7202 107° East  Level Estimated
01:58PM 29.6680 36.1620 79° East 502 578 35,000  Level FlightAware
01:59PM 29.6910 36.3000 79° East 501 577 35,000  Level FlightAware
01:59PM 29.7040 36.3760 79° East 501 577 35,000  Level FlightAware
02:00PM 29.7260 36.5190 80° East 502 578 35,000  Level FlightAware
02:01PM 29.7450 36.6340 79° East 504 580 35,000  Level FlightAware
02:02PM 29.7620 36.7390 79° East 504 580 35,000  Level FlightAware
02:02PM 29.7760 36.8200 79° East 504 580 35,000 1,140 Level FlightAware
02:03PM 29.7690 36.9650 93° East 501 577 36,600 1,380 Climbing FlightAware
02:04PM 29.7500 37.0630 103° East 500 575 37,000 240 Climbing FlightAware
02:05PM 29.7260 37.1870 103° East 499 574 37,000  Level FlightAware
02:05PM 29.7100 37.2750 102° East 499 574 37,000  Level FlightAware
02:06PM 29.6910 37.3770 102° East 499 574 37,000  Level FlightAware
02:07PM 29.6760 37.4560 102° East 499 574 37,000  Level FlightAware
02:07PM 29.6610 37.5400 102° East 499 574 37,000  Level FlightAware
02:08PM 29.6420 37.6440 102° East 499 574 37,000  Level FlightAware
02:09PM 29.6270 37.7240 102° East 499 574 37,000  Level FlightAware
02:09PM 29.6110 37.8100 102° East 499 574 37,000  Level FlightAware
02:10PM 29.5970 37.8870 102° East 499 574 37,000  Level FlightAware
02:11PM 29.5770 37.9930 102° East 499 574 37,000  Level FlightAware
02:11PM 29.5630 38.0700 102° East 499 574 37,000  Level FlightAware
02:12PM 29.5390 38.2000 102° East 499 574 37,000  Level FlightAware
02:13PM 29.5240 38.2800 102° East 499 574 37,000  Level FlightAware
02:14PM 29.5040 38.3860 102° East 499 574 37,000  Level FlightAware
02:14PM 29.4910 38.4610 101° East 499 574 37,000  Level FlightAware
02:17PM 29.4311 38.7896 102° East  Level Estimated
02:18PM 29.4061 38.9255 102° East  Level Estimated
02:19PM 29.3810 39.0613 102° East  Level Estimated
02:20PM 29.3557 39.1970 102° East  Level Estimated
02:21PM 29.3303 39.3327 102° East  Level Estimated
02:22PM 29.3047 39.4683 102° East  Level Estimated
02:23PM 29.2790 39.6038 102° East  Level Estimated
02:24PM 29.2532 39.7393 102° East  Level Estimated
02:25PM 29.2272 39.8747 102° East  Level Estimated
02:26PM 29.2011 40.0100 102° East  Level Estimated
02:27PM 29.1749 40.1453 102° East  Level Estimated
02:28PM 29.1485 40.2805 103° East  Level Estimated
02:29PM 29.1220 40.4156 103° East  Level Estimated
02:30PM 29.0954 40.5506 103° East  Level Estimated
02:31PM 29.0686 40.6856 103° East  Level Estimated
02:32PM 29.0417 40.8205 103° East  Level Estimated
02:33PM 29.0146 40.9554 103° East  Level Estimated
02:34PM 28.9874 41.0901 103° East  Level Estimated
02:35PM 28.9601 41.2248 103° East  Level Estimated
02:36PM 28.9327 41.3595 103° East  Level Estimated
02:37PM 28.9051 41.4940 103° East  Level Estimated
02:38PM 28.8773 41.6285 103° East  Level Estimated
02:39PM 28.8495 41.7629 103° East  Level Estimated
02:40PM 28.8215 41.8972 103° East  Level Estimated
02:41PM 28.7934 42.0315 103° East  Level Estimated
02:42PM 28.7651 42.1657 103° East  Level Estimated
02:43PM 28.7367 42.2998 104° East  Level Estimated
02:44PM 28.7082 42.4338 104° East  Level Estimated
02:45PM 28.6796 42.5678 104° East  Level Estimated
02:46PM 28.6508 42.7017 104° East  Level Estimated
02:47PM 28.6219 42.8355 104° East  Level Estimated
02:48PM 28.5928 42.9693 104° East  Level Estimated
02:49PM 28.5637 43.1030 104° East  Level Estimated
02:50PM 28.5343 43.2366 104° East  Level Estimated
02:51PM 28.5049 43.3701 104° East  Level Estimated
02:52PM 28.4753 43.5036 104° East  Level Estimated
02:53PM 28.4456 43.6369 104° East  Level Estimated
02:54PM 28.4158 43.7702 104° East  Level Estimated
02:55PM 28.3859 43.9035 104° East  Level Estimated
02:56PM 28.3558 44.0366 104° East  Level Estimated
02:57PM 28.3255 44.1697 104° East  Level Estimated
02:58PM 28.2952 44.3027 104° East  Level Estimated
02:59PM 28.2647 44.4356 105° East  Level Estimated
03:00PM 28.2341 44.5685 105° East  Level Estimated
03:01PM 28.2034 44.7012 105° East  Level Estimated
03:02PM 28.1725 44.8340 105° East  Level Estimated
03:03PM 28.1415 44.9666 105° East  Level Estimated
03:04PM 28.1104 45.0991 105° East  Level Estimated
03:05PM 28.0792 45.2316 105° East  Level Estimated
03:06PM 28.0478 45.3640 105° East  Level Estimated
03:07PM 28.0163 45.4963 105° East  Level Estimated
03:07PM 27.6770 46.5380 106° East 472 543 37,000  Level FlightAware
03:08PM 27.9847 45.6285 105° East  Level Estimated
03:09PM 27.9529 45.7607 105° East  Level Estimated
03:10PM 27.9211 45.8927 105° East  Level Estimated
03:11PM 27.8891 46.0247 105° East  Level Estimated
03:12PM 27.8569 46.1567 105° East  Level Estimated
03:13PM 27.8247 46.2885 105° East  Level Estimated
03:14PM 27.7923 46.4203 105° East  Level Estimated
03:15PM 27.7598 46.5520 106° East  Level Estimated
03:16PM 27.7272 46.6836 106° East  Level Estimated
03:17PM 27.6944 46.8151 106° East  Level Estimated
03:18PM 27.6616 46.9466 106° East  Level Estimated
03:19PM 27.6285 47.0779 106° East  Level Estimated
03:20PM 27.5954 47.2092 106° East  Level Estimated
03:21PM 27.5622 47.3404 106° East  Level Estimated
03:21PM 27.2430 48.5210 103° East 479 551 37,000  Level FlightAware
03:21PM 27.2250 48.6000 104° East 479 551 37,000  Level FlightAware
03:22PM 27.2090 48.6740 104° East 479 551 37,000  Level FlightAware
03:23PM 27.1870 48.7750 104° East 479 551 37,000  Level FlightAware
03:23PM 27.1710 48.8470 104° East 479 551 37,000  Level FlightAware
03:24PM 27.1500 48.9420 104° East 479 551 37,000  Level FlightAware
03:25PM 27.1270 49.0420 104° East 479 551 37,000  Level FlightAware
03:26PM 27.1120 49.1120 104° East 479 551 37,000  Level FlightAware
03:26PM 27.0900 49.2110 104° East 479 551 37,000  Level FlightAware
03:27PM 27.0740 49.2840 104° East 479 551 37,000  Level FlightAware
03:28PM 27.0510 49.3870 104° East 479 551 37,000  Level FlightAware
03:28PM 27.0340 49.4610 104° East 479 551 37,000  Level FlightAware
03:29PM 27.0120 49.5590 104° East 479 551 37,000  Level FlightAware
03:30PM 26.9880 49.6700 104° East 479 551 37,000  Level FlightAware
03:31PM 26.9710 49.7440 104° East 479 551 37,000  Level FlightAware
03:34PM 26.8704 50.0996 108° East  Level Estimated
03:35PM 26.8336 50.2287 108° East  Level Estimated
03:36PM 26.7966 50.3578 108° East  Level Estimated
03:36PM 26.9270 50.7560 108° East 476 548 37,000  Level FlightAware
03:37PM 26.9080 50.9020 98° East 480 552 37,000  Level FlightAware
03:37PM 26.8970 50.9920 98° East 482 555 37,000  Level FlightAware
03:38PM 26.8840 51.0930 98° East 482 555 37,000  Level FlightAware
03:39PM 26.8640 51.2000 102° East 481 554 37,000  Level FlightAware
03:39PM 26.8450 51.2680 107° East 481 554 37,000  Level FlightAware
03:40PM 26.8120 51.3770 109° East 478 550 37,000  Level FlightAware
03:41PM 26.7800 51.4830 109° East 478 550 37,000  Level FlightAware
03:41PM 26.7580 51.5570 108° East 478 550 37,000  Level FlightAware
03:42PM 26.7230 51.6740 108° East 478 550 37,000  Level FlightAware
03:43PM 26.6920 51.7770 109° East 479 551 37,000  Level FlightAware
03:44PM 26.6640 51.8690 109° East 479 551 37,000  Level FlightAware
03:44PM 26.6370 51.9550 109° East 482 555 37,000  Level FlightAware
03:46PM 26.5450 52.2360 110° East 480 552 37,000  Level FlightAware
03:47PM 26.5150 52.3280 110° East 479 551 37,000  Level FlightAware
03:48PM 26.4820 52.4300 110° East 478 550 37,000  Level FlightAware
03:48PM 26.4500 52.5250 111° Southeast 477 549 37,000  Level FlightAware
03:49PM 26.4210 52.6130 110° East 476 548 37,000  Level FlightAware
03:50PM 26.3850 52.7210 110° East 476 548 37,000  Level FlightAware
03:50PM 26.3530 52.8200 110° East 477 549 37,000  Level FlightAware
03:51PM 26.3130 52.9410 110° East 478 550 37,000 -2,160 Level FlightAware
03:53PM 26.2380 53.1620 111° Southeast 31,800 -3,000 Descending FlightAware
03:54PM 26.2070 53.2530 111° Southeast 476 548 30,300 -1,980 Descending FlightAware
03:54PM 26.1670 53.3640 112° Southeast 468 539 29,000 -660 Descending FlightAware
03:56PM 26.1110 53.5110 113° Southeast 468 539 29,000  Level FlightAware
03:56PM 26.0870 53.5790 111° Southeast 468 539 29,000  Level FlightAware
03:57PM 26.0380 53.6820 118° Southeast 389 448 29,000  Level FlightAware
03:58PM 25.9990 53.7780 114° Southeast 390 449 29,000  Level FlightAware
03:59PM 25.9690 53.8530 114° Southeast 390 449 29,000  Level FlightAware
03:59PM 25.9470 53.9090 114° Southeast 390 449 29,000  Level FlightAware
04:00PM 25.9390 53.9270 116° Southeast 390 449 29,000  Level FlightAware
04:01PM 25.8950 54.0380 114° Southeast 390 449 29,000  Level FlightAware
04:01PM 25.8710 54.0970 114° Southeast 390 449 29,000 -780 Level FlightAware
04:04PM 25.7553 54.3377 118° Southeast  Level Estimated
04:05PM 25.6987 54.4550 118° Southeast  Level Estimated
04:06PM 25.6421 54.5721 118° Southeast  Level Estimated
04:07PM 25.5853 54.6891 118° Southeast  Level Estimated
04:08PM 25.5285 54.8060 118° Southeast  Level Estimated
04:09PM 25.4715 54.9228 118° Southeast  Level Estimated
04:10PM 25.4145 55.0395 118° Southeast  Level Estimated
04:11PM 25.3574 55.1561 118° Southeast  Level Estimated
04:12PM 25.3001 55.2726 118° Southeast  Level Estimated
04:13PM 25.2550 55.3643 119° Southeast  Level Estimated
04:14PM 25.2550 55.3643 211° Southwest  Level Estimated
04:15PM 25.2550 55.3643 211° Southwest  Level Estimated
04:16PM 25.2550 55.3643 211° Southwest  Level Estimated
04:17PM 25.2550 55.3643 211° Southwest  Level Estimated
04:18PM 25.2550 55.3643 211° Southwest  Level Estimated
04:19PM 25.2550 55.3643 211° Southwest  Level Estimated
04:20PM 25.2550 55.3643 211° Southwest  Level Estimated
04:21PM 25.2550 55.3643 211° Southwest  Level Estimated
04:22PM 25.2550 55.3643 211° Southwest  Level Estimated
04:23PM 25.2550 55.3643 211° Southwest  Level Estimated
04:24PM 25.2550 55.3643 211° Southwest  Level Estimated
04:25PM 25.2550 55.3643 211° Southwest  Level Estimated
04:26PM 25.2550 55.3643 211° Southwest  Level Estimated
04:27PM 25.2550 55.3643 211° Southwest  Level Estimated
04:28PM 25.2550 55.3643 211° Southwest  Level Estimated
04:29PM 25.2550 55.3643 211° Southwest  Level Estimated
04:29PM 25.3910 55.2630 211° Southwest 263 303 8,500  Level FlightAware
04:29PM 25.3720 55.2980 121° Southeast 265 305 8,300 -600 Descending FlightAware
04:30PM 25.3260 55.3800 122° Southeast 262 302 7,500 -660 Descending FlightAware
04:31PM 25.3090 55.4120 120° Southeast 248 285 7,300 -540 Descending FlightAware
04:31PM 25.2920 55.4420 122° Southeast 238 274 7,000 -600 Descending FlightAware
04:32PM 25.2880 55.4480 126° Southeast 238 274 6,900 -300 Descending FlightAware
04:32PM 25.2690 55.4850 120° Southeast 238 274 6,800 -780 Descending FlightAware
04:35PM 25.2550 55.3643 263° West  Level Estimated
04:36PM 25.2550 55.3643 211° Southwest  Level Estimated
04:37PM 25.2550 55.3643 211° Southwest  Level Estimated
04:38PM 25.2550 55.3643 211° Southwest  Level Estimated
04:39PM 25.2550 55.3643 211° Southwest  Level Estimated
04:40PM 25.2550 55.3643 211° Southwest  Level Estimated
04:40PM 25.2270 55.4110 301° West 154 177 900  Level FlightAware
04:40PM 25.2390 55.3900 302° West 158 182 500 -780 Descending FlightAware
04:41PM 25.2470 55.3750 301° West 158 182 -960 Descending FlightAware
04:41PM 25.2480 55.3720 290° West 158 182  Level FlightAware
04:42PM 25.2460 55.3890 97° East 158 182  Level FlightAware
04:42PM 25.2470 55.3690 273° West 158 182  Level FlightAware
04:43PM 25.2500 55.3870 80° East 158 182  Level FlightAware
04:44PM 25.2440 55.3660 252° West 158 182  Level FlightAware
04:44PM 25.2420 55.3840 97° East 158 182  Level FlightAware
04:44PM 25.2440 55.3630 276° West 158 182  Level FlightAware
04:46PM 25.2460 55.3630 360° North 158 182  Level FlightAware
04:46PM 25.2470 55.3630 360° North 158 182  Level FlightAware
04:49PM 25.2550 55.3643 North  Level Estimated